Time;durP1;ratioP1;P1;durP2;ratioP2;P2;SDS_P1;SDS_P2;PMS_P1;PMS_P2;Temp;Humidity;BMP_temperature;BMP_pressure;BME280_temperature;BME280_humidity;BME280_pressure;Samples;Min_cycle;Max_cycle;Signal;HPM_P1;HPM_P2
2022/08/01 00:00:26;;;;;;;17.73;11.70;;;19.20;99.90;;;;;;4996209;28;20171;-81
2022/08/01 00:02:51;;;;;;;16.60;11.10;;;19.20;99.90;;;;;;4995341;28;20178;-80
2022/08/01 00:05:17;;;;;;;24.47;12.90;;;19.20;99.90;;;;;;4995733;28;20199;-81
2022/08/01 00:07:43;;;;;;;18.40;11.40;;;19.20;99.90;;;;;;4999255;28;20178;-81
2022/08/01 00:10:11;;;;;;;18.10;10.70;;;19.20;99.90;;;;;;4999295;28;20674;-81
2022/08/01 00:12:37;;;;;;;19.53;11.33;;;19.20;99.90;;;;;;4999537;28;20257;-80
2022/08/01 00:15:05;;;;;;;13.47;10.27;;;19.20;99.90;;;;;;4999314;28;20277;-81
2022/08/01 00:17:31;;;;;;;19.77;10.67;;;19.10;99.90;;;;;;4999382;28;20171;-80
2022/08/01 00:19:56;;;;;;;17.23;10.37;;;19.10;99.90;;;;;;4998968;28;20171;-80
2022/08/01 00:22:25;;;;;;;16.47;9.80;;;19.10;99.90;;;;;;4999131;28;20187;-80
2022/08/01 00:24:51;;;;;;;14.93;9.80;;;19.10;99.90;;;;;;4999059;28;20214;-81
2022/08/01 00:27:17;;;;;;;13.60;9.60;;;19.10;99.90;;;;;;4998874;28;20236;-80
2022/08/01 00:29:43;;;;;;;17.13;9.77;;;19.10;99.90;;;;;;4999745;28;20206;-80
2022/08/01 00:32:08;;;;;;;20.63;10.00;;;19.10;99.90;;;;;;4999854;28;20213;-81
2022/08/01 00:34:34;;;;;;;15.93;9.50;;;19.00;99.90;;;;;;4999379;28;20186;-81
2022/08/01 00:37:00;;;;;;;14.90;9.60;;;19.10;99.90;;;;;;5000013;28;20166;-82
2022/08/01 00:39:26;;;;;;;16.70;10.03;;;19.00;99.90;;;;;;4999466;28;20631;-82
2022/08/01 00:41:51;;;;;;;19.83;9.43;;;19.00;99.90;;;;;;4999972;28;20181;-81
2022/08/01 00:44:17;;;;;;;18.37;10.17;;;19.00;99.90;;;;;;4998837;28;20651;-82
2022/08/01 00:46:42;;;;;;;16.50;10.03;;;18.90;99.90;;;;;;4998813;28;20274;-80
2022/08/01 00:49:08;;;;;;;15.83;10.27;;;18.90;99.90;;;;;;4998991;28;20321;-80
2022/08/01 00:51:34;;;;;;;18.07;10.23;;;18.90;99.90;;;;;;4999116;28;20516;-81
2022/08/01 00:54:00;;;;;;;19.67;9.97;;;18.80;99.90;;;;;;4999337;28;20195;-81
2022/08/01 00:56:27;;;;;;;19.20;10.60;;;18.80;99.90;;;;;;4998909;28;20643;-81
2022/08/01 00:58:54;;;;;;;19.30;11.00;;;18.90;99.90;;;;;;4998858;28;20187;-81
2022/08/01 01:01:21;;;;;;;18.20;10.33;;;18.80;99.90;;;;;;4998763;28;20233;-80
2022/08/01 01:03:51;;;;;;;18.17;10.90;;;18.70;99.90;;;;;;4998956;28;20175;-81
2022/08/01 01:06:41;;;;;;;21.97;10.53;;;18.80;99.90;;;;;;5016905;28;20175;-81
2022/08/01 01:09:18;;;;;;;18.77;11.20;;;18.80;99.90;;;;;;4998742;28;20230;-80
2022/08/01 01:12:10;;;;;;;20.50;11.07;;;18.80;99.90;;;;;;4998831;28;20237;-81
2022/08/01 01:14:49;;;;;;;23.03;11.17;;;18.70;99.90;;;;;;4998201;28;20266;-80
2022/08/01 01:17:23;;;;;;;16.90;10.37;;;18.80;99.90;;;;;;4998049;28;20174;-80
2022/08/01 01:19:53;;;;;;;24.43;11.60;;;18.80;99.90;;;;;;4998525;28;20174;-81
2022/08/01 01:22:22;;;;;;;20.93;11.33;;;18.80;99.90;;;;;;4998811;28;20265;-81
2022/08/01 01:25:09;;;;;;;21.10;11.30;;;18.80;99.90;;;;;;4999080;28;20191;-81
2022/08/01 01:28:03;;;;;;;22.40;11.50;;;18.80;99.90;;;;;;4998331;28;20177;-80
2022/08/01 01:30:32;;;;;;;22.53;11.63;;;18.80;99.90;;;;;;4997218;28;20217;-81
2022/08/01 01:33:02;;;;;;;16.43;10.60;;;18.70;99.90;;;;;;4996984;28;20198;-81
2022/08/01 01:35:31;;;;;;;19.80;11.87;;;18.80;99.90;;;;;;4996955;28;20237;-80
2022/08/01 01:38:07;;;;;;;20.43;10.83;;;18.70;99.90;;;;;;4997078;28;20181;-81
2022/08/01 01:40:33;;;;;;;16.40;10.53;;;18.70;99.90;;;;;;4998551;28;20175;-80
2022/08/01 01:43:00;;;;;;;16.90;10.97;;;18.60;99.90;;;;;;4998216;28;20678;-81
2022/08/01 01:45:26;;;;;;;17.53;10.17;;;18.70;99.90;;;;;;4998348;28;20735;-82
2022/08/01 01:47:54;;;;;;;21.40;11.07;;;18.70;99.90;;;;;;4997275;28;20171;-79
2022/08/01 01:50:21;;;;;;;19.93;10.53;;;18.70;99.90;;;;;;4998379;28;20322;-81
2022/08/01 01:52:48;;;;;;;19.87;11.37;;;18.70;99.90;;;;;;4998393;28;20175;-80
2022/08/01 01:55:16;;;;;;;22.13;11.43;;;18.70;99.90;;;;;;4997857;28;20194;-79
2022/08/01 01:57:44;;;;;;;19.30;10.83;;;18.70;99.90;;;;;;4998422;28;20576;-80
2022/08/01 02:00:11;;;;;;;19.73;10.90;;;18.70;99.90;;;;;;4998035;28;20183;-80
2022/08/01 02:02:37;;;;;;;19.13;10.30;;;18.60;99.90;;;;;;4997535;28;20226;-80
2022/08/01 02:05:06;;;;;;;21.20;11.07;;;18.60;99.90;;;;;;4997378;28;20667;-79
2022/08/01 02:07:33;;;;;;;24.83;11.37;;;18.50;99.90;;;;;;4997985;28;20171;-80
2022/08/01 02:10:01;;;;;;;22.07;11.10;;;18.60;99.90;;;;;;4997782;28;20239;-80
2022/08/01 02:12:32;;;;;;;16.90;10.03;;;18.70;99.90;;;;;;4997787;28;20183;-80
2022/08/01 02:14:58;;;;;;;21.17;10.63;;;18.60;99.90;;;;;;4997712;28;20187;-81
2022/08/01 02:17:25;;;;;;;16.47;10.47;;;18.60;99.90;;;;;;4997907;28;20742;-81
2022/08/01 02:19:50;;;;;;;19.00;11.03;;;18.60;99.90;;;;;;4997451;28;20190;-79
2022/08/01 02:22:20;;;;;;;18.63;11.10;;;18.60;99.90;;;;;;4997717;28;20171;-79
2022/08/01 02:24:58;;;;;;;20.60;11.30;;;18.70;99.90;;;;;;4998279;28;20195;-80
2022/08/01 02:27:51;;;;;;;22.50;11.13;;;18.70;99.90;;;;;;4999298;28;20178;-79
2022/08/01 02:30:17;;;;;;;21.47;11.73;;;18.60;99.90;;;;;;4990757;28;20214;-79
2022/08/01 02:32:49;;;;;;;24.47;10.87;;;18.70;99.90;;;;;;5000836;28;20524;-80
2022/08/01 02:35:31;;;;;;;23.50;11.03;;;18.70;99.90;;;;;;5001909;28;20257;-80
2022/08/01 02:37:59;;;;;;;21.30;11.30;;;18.70;99.90;;;;;;4998564;28;20174;-80
2022/08/01 02:40:28;;;;;;;22.00;11.63;;;18.60;99.90;;;;;;4998420;28;20186;-80
2022/08/01 02:42:56;;;;;;;19.83;11.00;;;18.60;99.90;;;;;;4997710;28;20228;-80
2022/08/01 02:45:25;;;;;;;21.30;11.57;;;18.70;99.90;;;;;;4998422;28;20222;-80
2022/08/01 02:47:55;;;;;;;20.60;11.60;;;18.70;99.90;;;;;;4998070;28;20174;-80
2022/08/01 02:50:23;;;;;;;23.63;12.47;;;18.70;99.90;;;;;;4998526;28;20293;-81
2022/08/01 02:52:51;;;;;;;23.40;11.47;;;18.70;99.90;;;;;;4997740;28;20225;-80
2022/08/01 02:55:19;;;;;;;22.83;11.90;;;18.70;99.90;;;;;;4998113;28;20248;-81
2022/08/01 02:57:46;;;;;;;20.87;10.97;;;18.70;99.90;;;;;;4997290;28;20177;-79
2022/08/01 03:00:14;;;;;;;22.43;10.83;;;18.70;99.90;;;;;;4996997;28;20631;-80
2022/08/01 03:02:41;;;;;;;18.43;10.97;;;18.60;99.90;;;;;;4998027;28;20670;-81
2022/08/01 03:05:08;;;;;;;21.33;10.60;;;18.60;99.90;;;;;;4998123;28;20199;-80
2022/08/01 03:07:35;;;;;;;19.27;10.37;;;18.60;99.90;;;;;;4998385;28;20171;-80
2022/08/01 03:10:02;;;;;;;21.00;10.17;;;18.70;99.90;;;;;;4997263;28;20202;-78
2022/08/01 03:12:32;;;;;;;15.57;9.67;;;18.60;99.90;;;;;;4998519;28;20177;-78
2022/08/01 03:15:00;;;;;;;19.23;10.33;;;18.60;99.90;;;;;;4997761;28;20243;-82
2022/08/01 03:17:28;;;;;;;17.93;9.63;;;18.50;99.90;;;;;;4998622;28;20198;-80
2022/08/01 03:19:56;;;;;;;23.20;9.93;;;18.60;99.90;;;;;;4998801;28;20201;-81
2022/08/01 03:22:25;;;;;;;20.67;9.83;;;18.60;99.90;;;;;;4999846;28;20180;-80
2022/08/01 03:24:53;;;;;;;18.60;9.90;;;18.60;99.90;;;;;;4998894;28;20197;-80
2022/08/01 03:27:24;;;;;;;17.33;9.00;;;18.70;99.90;;;;;;4999136;28;20175;-80
2022/08/01 03:29:51;;;;;;;22.63;9.40;;;18.60;99.90;;;;;;4997776;28;20206;-81
2022/08/01 03:32:19;;;;;;;20.57;8.43;;;18.60;99.90;;;;;;4998928;28;20225;-80
2022/08/01 03:34:46;;;;;;;15.20;8.77;;;18.60;99.90;;;;;;5002487;28;20214;-79
2022/08/01 03:37:34;;;;;;;17.07;9.47;;;18.60;99.90;;;;;;4999447;28;20175;-82
2022/08/01 03:40:27;;;;;;;19.80;9.37;;;18.50;99.90;;;;;;4998425;28;20252;-81
2022/08/01 03:42:59;;;;;;;16.63;7.83;;;18.50;99.90;;;;;;5003367;28;20221;-80
2022/08/01 03:45:36;;;;;;;16.67;8.90;;;18.50;99.90;;;;;;5003875;28;20201;-80
2022/08/01 03:48:06;;;;;;;17.33;8.90;;;18.50;99.90;;;;;;5003009;28;20170;-80
2022/08/01 03:50:33;;;;;;;16.13;8.70;;;18.50;99.90;;;;;;5003582;28;20193;-81
2022/08/01 03:53:01;;;;;;;19.00;9.10;;;18.50;99.90;;;;;;5003205;28;20236;-78
2022/08/01 03:55:30;;;;;;;20.03;9.70;;;18.50;99.90;;;;;;5004583;28;20197;-79
2022/08/01 03:57:56;;;;;;;18.13;9.67;;;18.50;99.90;;;;;;5001950;28;20593;-79
2022/08/01 04:00:22;;;;;;;25.20;10.30;;;18.50;99.90;;;;;;5000940;28;20170;-80
2022/08/01 04:02:49;;;;;;;19.33;8.90;;;18.50;99.90;;;;;;5000208;28;20182;-80
2022/08/01 04:05:15;;;;;;;15.67;9.73;;;18.50;99.90;;;;;;5000688;28;20194;-78
2022/08/01 04:07:46;;;;;;;15.53;9.27;;;18.50;99.90;;;;;;5000631;28;20181;-79
2022/08/01 04:10:12;;;;;;;24.23;9.30;;;18.40;99.90;;;;;;5000820;28;20217;-79
2022/08/01 04:12:37;;;;;;;19.73;9.40;;;18.50;99.90;;;;;;5000884;28;20170;-79
2022/08/01 04:15:04;;;;;;;20.70;9.77;;;18.50;99.90;;;;;;5001141;28;20193;-81
2022/08/01 04:17:30;;;;;;;16.07;9.33;;;18.50;99.90;;;;;;5000402;28;20175;-78
2022/08/01 04:19:56;;;;;;;14.67;9.43;;;18.40;99.90;;;;;;5018019;28;20175;-81
2022/08/01 04:22:22;;;;;;;17.03;9.87;;;18.40;99.90;;;;;;5000705;28;20178;-79
2022/08/01 04:24:52;;;;;;;18.60;8.63;;;18.50;99.90;;;;;;5000262;28;20195;-78
2022/08/01 04:27:22;;;;;;;18.40;8.93;;;18.50;99.90;;;;;;5000237;28;20632;-82
2022/08/01 04:29:51;;;;;;;17.30;9.07;;;18.50;99.90;;;;;;4999916;28;20195;-81
2022/08/01 04:32:19;;;;;;;15.97;8.07;;;18.60;99.90;;;;;;5000042;28;20167;-80
2022/08/01 04:34:46;;;;;;;20.93;9.10;;;18.50;99.90;;;;;;5000409;28;20193;-82
2022/08/01 04:37:16;;;;;;;18.47;8.90;;;18.50;99.90;;;;;;5000092;28;20198;-82
2022/08/01 04:39:42;;;;;;;16.63;8.17;;;18.60;99.90;;;;;;4999426;28;20225;-82
2022/08/01 04:42:10;;;;;;;13.83;7.53;;;18.50;99.90;;;;;;4999741;28;20183;-81
2022/08/01 04:44:36;;;;;;;12.93;7.10;;;18.60;99.90;;;;;;5000089;28;20306;-82
2022/08/01 04:47:03;;;;;;;10.97;6.50;;;18.50;99.90;;;;;;4999842;28;20218;-81
2022/08/01 04:49:33;;;;;;;14.57;6.73;;;18.50;99.90;;;;;;4999835;28;20301;-81
2022/08/01 04:51:59;;;;;;;11.03;6.10;;;18.50;99.90;;;;;;5000394;28;20261;-80
2022/08/01 04:54:27;;;;;;;10.03;6.50;;;18.50;99.90;;;;;;4999967;28;20225;-80
2022/08/01 04:56:55;;;;;;;10.57;6.37;;;18.50;99.90;;;;;;4999911;28;20171;-81
2022/08/01 04:59:39;;;;;;;11.03;5.80;;;18.50;99.90;;;;;;4999810;28;20182;-81
2022/08/01 05:02:05;;;;;;;9.93;6.00;;;18.50;99.90;;;;;;5017698;28;20182;-79
2022/08/01 05:04:31;;;;;;;10.13;5.70;;;18.50;99.90;;;;;;5000123;28;20199;-82
2022/08/01 05:06:57;;;;;;;8.00;5.13;;;18.50;99.90;;;;;;5000155;28;20182;-81
2022/08/01 05:09:23;;;;;;;10.47;5.30;;;18.50;99.90;;;;;;4999303;28;20217;-80
2022/08/01 05:11:48;;;;;;;8.30;5.27;;;18.50;99.90;;;;;;4999828;28;20179;-80
2022/08/01 05:14:14;;;;;;;8.60;5.90;;;18.50;99.90;;;;;;4999337;28;20194;-80
2022/08/01 05:16:41;;;;;;;11.23;6.33;;;18.50;99.90;;;;;;4999034;28;20175;-81
2022/08/01 05:19:08;;;;;;;9.07;5.77;;;18.50;99.90;;;;;;4999598;28;20188;-81
2022/08/01 05:21:34;;;;;;;8.67;6.30;;;18.60;99.90;;;;;;4999814;28;20189;-81
2022/08/01 05:24:00;;;;;;;10.37;5.80;;;18.60;99.90;;;;;;4998835;28;20198;-82
2022/08/01 05:26:26;;;;;;;9.93;6.00;;;18.50;99.90;;;;;;4998883;28;20250;-82
2022/08/01 05:28:51;;;;;;;7.90;6.20;;;18.60;99.90;;;;;;4998709;28;20279;-80
2022/08/01 05:31:17;;;;;;;9.63;6.53;;;18.50;99.90;;;;;;4998985;28;20170;-81
2022/08/01 05:33:43;;;;;;;9.47;6.33;;;18.60;99.90;;;;;;4998212;28;20175;-81
2022/08/01 05:36:08;;;;;;;10.43;6.60;;;18.60;99.90;;;;;;4998950;28;20190;-79
2022/08/01 05:38:34;;;;;;;9.30;6.17;;;18.60;99.90;;;;;;4998469;28;20179;-82
2022/08/01 05:41:00;;;;;;;11.33;6.70;;;18.50;99.90;;;;;;4999165;28;20630;-81
2022/08/01 05:43:25;;;;;;;9.23;6.10;;;18.60;99.90;;;;;;4999160;28;20289;-82
2022/08/01 05:45:51;;;;;;;9.07;6.67;;;18.60;99.90;;;;;;4998046;28;20195;-80
2022/08/01 05:48:17;;;;;;;8.97;6.90;;;18.60;99.90;;;;;;5016065;28;20210;-82
2022/08/01 05:50:42;;;;;;;8.77;6.70;;;18.70;99.90;;;;;;4998434;28;20523;-83
2022/08/01 05:53:08;;;;;;;8.50;6.67;;;18.70;99.90;;;;;;4998209;28;20615;-84
2022/08/01 05:55:35;;;;;;;9.23;6.60;;;18.50;99.90;;;;;;4998453;28;20190;-83
2022/08/01 05:58:01;;;;;;;10.03;6.00;;;18.70;99.90;;;;;;5015950;28;20197;-82
2022/08/01 06:00:26;;;;;;;8.50;6.07;;;18.70;99.90;;;;;;4997913;28;20623;-83
2022/08/01 06:02:52;;;;;;;11.10;5.60;;;18.80;99.90;;;;;;4997771;28;20175;-83
2022/08/01 06:05:18;;;;;;;9.47;5.80;;;18.70;99.90;;;;;;4997479;28;20194;-82
2022/08/01 06:07:43;;;;;;;7.37;5.97;;;18.70;99.90;;;;;;4998324;28;20191;-81
2022/08/01 06:10:09;;;;;;;7.23;5.90;;;18.80;99.90;;;;;;4998348;28;20309;-82
2022/08/01 06:12:36;;;;;;;7.37;6.33;;;18.80;99.90;;;;;;4998354;28;20174;-82
2022/08/01 06:15:04;;;;;;;8.10;5.90;;;18.80;99.90;;;;;;4997911;28;20638;-82
2022/08/01 06:17:29;;;;;;;9.87;6.63;;;18.80;99.90;;;;;;4998139;28;20178;-82
2022/08/01 06:19:55;;;;;;;8.83;5.83;;;18.90;99.90;;;;;;4997987;28;20711;-83
2022/08/01 06:22:21;;;;;;;8.57;6.57;;;18.90;99.90;;;;;;4997966;28;20179;-82
2022/08/01 06:24:47;;;;;;;8.33;6.40;;;19.00;99.90;;;;;;4997575;28;20210;-82
2022/08/01 06:27:12;;;;;;;8.63;6.47;;;19.10;99.90;;;;;;4997728;28;20178;-83
2022/08/01 06:29:38;;;;;;;10.40;7.13;;;18.90;99.90;;;;;;4998009;28;20225;-81
2022/08/01 06:32:04;;;;;;;8.13;7.10;;;18.90;99.90;;;;;;4998295;28;20524;-80
2022/08/01 06:34:29;;;;;;;9.10;7.07;;;18.70;99.90;;;;;;4998052;28;20249;-81
2022/08/01 06:36:55;;;;;;;10.63;7.33;;;18.80;99.90;;;;;;4998452;28;20546;-81
2022/08/01 06:39:21;;;;;;;12.17;7.80;;;18.60;99.90;;;;;;5000958;28;20624;-80
2022/08/01 06:41:46;;;;;;;10.03;6.80;;;18.60;99.90;;;;;;5000491;28;20206;-79
2022/08/01 06:44:13;;;;;;;11.23;7.07;;;18.60;99.90;;;;;;4998828;28;20663;-79
2022/08/01 06:46:38;;;;;;;9.50;7.17;;;18.60;99.90;;;;;;4999098;28;20174;-79
2022/08/01 06:49:04;;;;;;;8.60;6.73;;;18.50;99.90;;;;;;4998683;28;20743;-80
2022/08/01 06:51:30;;;;;;;10.33;6.60;;;18.50;99.90;;;;;;4999462;28;20202;-81
2022/08/01 06:53:56;;;;;;;8.17;6.67;;;18.50;99.90;;;;;;5000479;28;20175;-80
2022/08/01 06:56:22;;;;;;;8.67;6.10;;;18.50;99.90;;;;;;5000011;28;20187;-79
2022/08/01 06:58:48;;;;;;;8.43;6.60;;;18.50;99.90;;;;;;4999998;28;20179;-80
2022/08/01 07:01:14;;;;;;;10.10;7.10;;;18.50;99.90;;;;;;4998661;28;20238;-82
2022/08/01 07:03:40;;;;;;;7.57;6.40;;;18.60;99.90;;;;;;4998269;28;20256;-80
2022/08/01 07:06:05;;;;;;;8.90;6.23;;;18.60;99.90;;;;;;4998375;28;20170;-80
2022/08/01 07:08:31;;;;;;;11.90;6.90;;;18.80;99.90;;;;;;4998089;28;20729;-83
2022/08/01 07:10:59;;;;;;;8.97;6.47;;;18.90;99.90;;;;;;4998462;28;20170;-82
2022/08/01 07:13:26;;;;;;;9.07;6.40;;;19.00;99.90;;;;;;4997469;28;20178;-79
2022/08/01 07:15:52;;;;;;;8.60;6.10;;;18.90;99.90;;;;;;4996413;28;20217;-80
2022/08/01 07:18:18;;;;;;;7.33;5.67;;;18.90;99.90;;;;;;4997499;28;20171;-80
2022/08/01 07:20:45;;;;;;;8.93;7.27;;;18.90;99.90;;;;;;4997363;28;20176;-80
2022/08/01 07:23:12;;;;;;;9.27;6.53;;;18.90;99.90;;;;;;4996980;28;20180;-79
2022/08/01 07:25:38;;;;;;;10.40;6.80;;;18.90;99.90;;;;;;4996839;28;20190;-78
2022/08/01 07:28:04;;;;;;;7.13;6.10;;;19.00;99.90;;;;;;4998741;28;20258;-79
2022/08/01 07:30:29;;;;;;;11.73;6.20;;;19.00;99.90;;;;;;4996951;28;20735;-79
2022/08/01 07:32:55;;;;;;;8.47;6.77;;;19.10;99.90;;;;;;4997601;28;20272;-80
2022/08/01 07:35:21;;;;;;;9.00;6.83;;;19.10;99.90;;;;;;4997489;28;20248;-80
2022/08/01 07:37:47;;;;;;;8.37;6.60;;;19.10;99.90;;;;;;4998100;28;20170;-80
2022/08/01 07:40:12;;;;;;;8.43;6.17;;;19.10;99.90;;;;;;4997630;28;20764;-80
2022/08/01 07:42:38;;;;;;;6.00;5.40;;;19.10;99.90;;;;;;4996880;28;20170;-82
2022/08/01 07:45:04;;;;;;;6.57;5.17;;;18.90;99.90;;;;;;5015135;28;20198;-81
2022/08/01 07:47:30;;;;;;;5.93;4.87;;;18.80;99.90;;;;;;4998549;28;20198;-80
2022/08/01 07:49:59;;;;;;;8.10;5.47;;;18.90;99.90;;;;;;4997240;28;20202;-80
2022/08/01 07:52:26;;;;;;;8.70;5.40;;;18.90;99.90;;;;;;5014840;28;20254;-80
2022/08/01 07:54:52;;;;;;;6.43;5.40;;;19.00;99.90;;;;;;4998050;28;20559;-80
2022/08/01 07:57:18;;;;;;;7.83;6.03;;;19.10;99.90;;;;;;4999196;28;20178;-81
2022/08/01 07:59:44;;;;;;;7.97;5.83;;;19.20;99.90;;;;;;4998702;28;20170;-80
2022/08/01 08:02:10;;;;;;;10.27;6.20;;;19.10;99.90;;;;;;5024479;23;20291;-80
2022/08/01 08:04:35;;;;;;;8.13;6.00;;;19.20;99.90;;;;;;5030017;28;20700;-80
2022/08/01 08:07:01;;;;;;;8.93;5.73;;;19.30;99.90;;;;;;5031105;28;20540;-79
2022/08/01 08:09:27;;;;;;;6.10;5.33;;;19.30;99.90;;;;;;5033499;28;20678;-78
2022/08/01 08:11:52;;;;;;;5.40;4.90;;;19.30;99.90;;;;;;5031649;28;20201;-78
2022/08/01 08:14:18;;;;;;;6.20;5.13;;;19.20;99.90;;;;;;5031670;28;20190;-80
2022/08/01 08:16:45;;;;;;;6.20;5.07;;;19.30;99.90;;;;;;5030435;28;20212;-78
2022/08/01 08:19:11;;;;;;;7.43;5.57;;;19.40;99.90;;;;;;5032627;28;20181;-78
2022/08/01 08:21:37;;;;;;;6.80;4.60;;;19.50;99.90;;;;;;5031061;28;20177;-77
2022/08/01 08:24:23;;;;;;;6.37;5.17;;;19.50;99.90;;;;;;5030180;28;20190;-78
2022/08/01 08:26:50;;;;;;;5.70;5.10;;;19.60;99.90;;;;;;5029400;28;20665;-80
2022/08/01 08:29:16;;;;;;;6.77;4.63;;;19.50;99.90;;;;;;5033731;28;20186;-80
2022/08/01 08:31:42;;;;;;;4.67;3.87;;;19.50;99.90;;;;;;5034559;28;20170;-79
2022/08/01 08:34:08;;;;;;;6.60;3.60;;;19.60;99.90;;;;;;5032881;28;20676;-79
2022/08/01 08:36:34;;;;;;;4.00;3.60;;;19.80;99.90;;;;;;5034740;28;20597;-79
2022/08/01 08:39:00;;;;;;;3.57;3.27;;;19.90;99.90;;;;;;5036390;28;20170;-79
2022/08/01 08:41:26;;;;;;;3.20;2.90;;;19.90;99.90;;;;;;5036289;28;20174;-80
2022/08/01 08:43:53;;;;;;;2.80;2.60;;;19.80;99.90;;;;;;5034912;28;20170;-79
2022/08/01 08:46:19;;;;;;;3.67;3.33;;;19.80;99.90;;;;;;5034797;28;20193;-79
2022/08/01 08:48:45;;;;;;;4.07;3.50;;;19.70;99.90;;;;;;5035159;28;20194;-80
2022/08/01 08:51:12;;;;;;;4.03;3.72;;;19.70;99.90;;;;;;5034702;28;20170;-79
2022/08/01 08:53:43;;;;;;;4.20;3.80;;;19.70;99.90;;;;;;5034410;28;20265;-79
2022/08/01 08:56:12;;;;;;;4.28;3.90;;;19.70;99.90;;;;;;5034706;28;20173;-80
2022/08/01 08:58:38;;;;;;;5.32;4.38;;;19.80;99.90;;;;;;5034145;28;20166;-79
2022/08/01 09:01:10;;;;;;;5.70;4.80;;;19.90;99.90;;;;;;5034665;28;20541;-78
2022/08/01 09:03:36;;;;;;;6.95;4.63;;;20.00;99.90;;;;;;5034463;28;20181;-80
2022/08/01 09:06:02;;;;;;;7.15;4.45;;;19.90;99.90;;;;;;5034812;28;20601;-79
2022/08/01 09:08:28;;;;;;;5.95;3.90;;;19.80;99.90;;;;;;5034620;28;20178;-79
2022/08/01 09:10:54;;;;;;;4.63;3.67;;;20.10;99.90;;;;;;5034644;28;20178;-79
2022/08/01 09:13:19;;;;;;;4.88;2.92;;;19.80;99.90;;;;;;5034429;28;20631;-80
2022/08/01 09:15:52;;;;;;;3.53;2.95;;;19.80;99.90;;;;;;5034531;28;20190;-79
2022/08/01 09:18:44;;;;;;;5.45;3.15;;;20.10;99.90;;;;;;5034783;28;20546;-79
2022/08/01 09:21:20;;;;;;;4.10;2.70;;;20.20;99.90;;;;;;5034768;28;20205;-79
2022/08/01 09:23:48;;;;;;;9.93;3.17;;;20.20;99.90;;;;;;5034825;28;20232;-79
2022/08/01 09:26:18;;;;;;;4.55;3.40;;;20.10;99.90;;;;;;5034197;28;20174;-80
2022/08/01 09:28:45;;;;;;;7.05;3.60;;;20.10;99.90;;;;;;5045201;28;20262;-79
2022/08/01 09:31:17;;;;;;;5.95;3.38;;;19.90;99.90;;;;;;5034447;28;20654;-78
2022/08/01 09:34:07;;;;;;;4.15;3.67;;;19.70;99.90;;;;;;5034001;28;20308;-79
2022/08/01 09:36:55;;;;;;;4.18;3.72;;;19.70;99.90;;;;;;5033548;28;20181;-78
2022/08/01 09:39:24;;;;;;;9.48;3.80;;;19.80;99.90;;;;;;5031263;28;20170;-79
2022/08/01 09:41:50;;;;;;;7.38;4.32;;;19.70;99.90;;;;;;5032026;28;20190;-78
2022/08/01 09:44:17;;;;;;;5.30;3.97;;;19.70;99.90;;;;;;5031742;28;20259;-79
2022/08/01 09:46:56;;;;;;;6.90;4.40;;;19.50;99.90;;;;;;5032441;28;20181;-78
2022/08/01 09:49:34;;;;;;;5.05;4.65;;;19.40;99.90;;;;;;5032388;28;20197;-78
2022/08/01 09:52:17;;;;;;;5.93;4.47;;;19.30;99.90;;;;;;5032097;28;20173;-78
2022/08/01 09:54:51;;;;;;;7.72;3.63;;;19.50;99.90;;;;;;5032341;28;20680;-78
2022/08/01 09:57:19;;;;;;;4.53;3.13;;;19.50;99.90;;;;;;5032319;28;20177;-79
2022/08/01 09:59:49;;;;;;;6.50;3.60;;;19.50;99.90;;;;;;5032814;28;20182;-79
2022/08/01 10:02:36;;;;;;;3.67;3.37;;;19.70;99.90;;;;;;5032890;28;20285;-79
2022/08/01 10:05:04;;;;;;;5.50;4.40;;;19.90;99.90;;;;;;5033276;28;20247;-79
2022/08/01 10:07:31;;;;;;;4.88;3.83;;;19.80;99.90;;;;;;5032742;28;20170;-78
2022/08/01 10:10:12;;;;;;;2.90;2.13;;;19.70;99.90;;;;;;5033551;28;20662;-78
2022/08/01 10:12:39;;;;;;;3.83;2.23;;;19.10;99.90;;;;;;5032134;28;20171;-78
2022/08/01 10:15:06;;;;;;;5.65;2.63;;;19.10;99.90;;;;;;5032473;28;20202;-78
2022/08/01 10:17:34;;;;;;;5.27;2.80;;;19.10;99.90;;;;;;5032461;28;20535;-80
2022/08/01 10:20:02;;;;;;;5.97;3.03;;;19.20;99.90;;;;;;5032318;28;20658;-79
2022/08/01 10:22:31;;;;;;;9.53;3.93;;;19.50;99.90;;;;;;5032388;28;20178;-79
2022/08/01 10:25:00;;;;;;;5.60;3.50;;;19.70;99.90;;;;;;5032417;28;20670;-79
2022/08/01 10:27:26;;;;;;;6.80;3.53;;;19.60;99.90;;;;;;5032270;28;20178;-79
2022/08/01 10:30:03;;;;;;;3.50;3.20;;;19.60;99.90;;;;;;5031682;28;20194;-79
2022/08/01 10:32:30;;;;;;;5.07;3.10;;;19.80;99.90;;;;;;5032291;28;20174;-78
2022/08/01 10:34:58;;;;;;;7.32;2.85;;;19.80;99.90;;;;;;5031678;28;20281;-78
2022/08/01 10:37:25;;;;;;;5.05;2.78;;;19.90;99.90;;;;;;5031463;28;20178;-78
2022/08/01 10:39:52;;;;;;;3.63;3.30;;;19.90;99.90;;;;;;5031434;28;20174;-78
2022/08/01 10:42:18;;;;;;;4.00;2.80;;;20.10;99.90;;;;;;5031337;28;20174;-78
2022/08/01 10:44:47;;;;;;;4.65;2.60;;;20.20;99.90;;;;;;5030840;28;20229;-78
2022/08/01 10:47:30;;;;;;;4.25;2.72;;;20.10;99.90;;;;;;5031381;28;20182;-79
2022/08/01 10:50:11;;;;;;;6.68;3.42;;;20.20;99.90;;;;;;5031089;28;20277;-78
2022/08/01 10:52:37;;;;;;;7.78;3.50;;;20.30;99.90;;;;;;5033074;28;20169;-79
2022/08/01 10:55:04;;;;;;;4.63;3.53;;;20.40;99.90;;;;;;5037220;28;20712;-80
2022/08/01 10:57:47;;;;;;;6.25;3.75;;;20.20;99.90;;;;;;5037768;28;20216;-79
2022/08/01 11:00:21;;;;;;;8.48;4.03;;;20.20;99.90;;;;;;5033791;28;20178;-79
2022/08/01 11:03:03;;;;;;;10.68;4.00;;;20.30;99.90;;;;;;5031238;28;20239;-79
2022/08/01 11:05:32;;;;;;;5.93;3.72;;;20.50;99.90;;;;;;5034486;28;20194;-79
2022/08/01 11:08:02;;;;;;;2.28;2.15;;;20.50;99.90;;;;;;5033653;28;20194;-79
2022/08/01 11:10:34;;;;;;;3.75;2.55;;;20.50;99.90;;;;;;5033825;28;20212;-79
2022/08/01 11:13:03;;;;;;;3.45;2.58;;;20.60;99.90;;;;;;5035562;28;20155;-79
2022/08/01 11:15:29;;;;;;;3.20;2.70;;;20.50;99.90;;;;;;5036079;28;20273;-79
2022/08/01 11:17:55;;;;;;;4.97;3.60;;;20.90;99.90;;;;;;5034961;28;20212;-79
2022/08/01 11:20:22;;;;;;;3.22;2.92;;;20.80;99.90;;;;;;5034586;28;20181;-79
2022/08/01 11:23:00;;;;;;;6.50;2.90;;;20.70;99.90;;;;;;5035990;28;20260;-79
2022/08/01 11:25:47;;;;;;;11.85;3.13;;;20.80;99.90;;;;;;5036128;28;20197;-80
2022/08/01 11:28:23;;;;;;;3.08;2.80;;;21.00;99.90;;;;;;5035259;28;20177;-80
2022/08/01 11:31:12;;;;;;;6.72;2.95;;;21.00;99.90;;;;;;5033679;28;20637;-79
2022/08/01 11:33:47;;;;;;;7.07;3.65;;;20.90;99.90;;;;;;5032997;28;20543;-79
2022/08/01 11:36:13;;;;;;;6.13;3.60;;;20.90;99.90;;;;;;5033099;28;20664;-80
2022/08/01 11:38:46;;;;;;;4.13;3.40;;;20.80;99.90;;;;;;5033381;28;20174;-80
2022/08/01 11:41:27;;;;;;;5.43;3.58;;;20.80;99.90;;;;;;5032992;28;20184;-79
2022/08/01 11:44:04;;;;;;;8.52;2.65;;;20.60;99.90;;;;;;5031917;28;20526;-79
2022/08/01 11:46:55;;;;;;;6.13;2.70;;;20.00;99.90;;;;;;5031742;28;20170;-79
2022/08/01 11:49:28;;;;;;;3.38;2.50;;;20.00;99.90;;;;;;5031090;28;20205;-79
2022/08/01 11:52:24;;;;;;;6.47;2.35;;;20.00;99.90;;;;;;5032551;28;20537;-80
2022/08/01 11:55:09;;;;;;;12.15;4.88;;;19.70;99.90;;;;;;5024674;28;20232;-79
2022/08/01 11:57:36;;;;;;;4.72;4.13;;;19.70;99.90;;;;;;5033326;28;20182;-80
2022/08/01 12:00:17;;;;;;;7.68;3.90;;;19.70;99.90;;;;;;5032805;28;20194;-80
2022/08/01 12:02:55;;;;;;;4.57;3.63;;;19.80;99.90;;;;;;5033880;28;20665;-80
2022/08/01 12:05:21;;;;;;;7.78;5.32;;;19.90;99.90;;;;;;5036684;28;20252;-79
2022/08/01 12:07:50;;;;;;;7.75;4.55;;;19.90;99.90;;;;;;5035967;28;20264;-80
2022/08/01 12:10:22;;;;;;;9.35;4.90;;;19.90;99.90;;;;;;5036511;28;20277;-80
2022/08/01 12:12:52;;;;;;;5.50;4.72;;;19.70;99.90;;;;;;5036150;28;20166;-80
2022/08/01 12:15:20;;;;;;;8.07;5.20;;;19.70;99.90;;;;;;5036432;28;20677;-80
2022/08/01 12:17:48;;;;;;;10.02;6.30;;;19.90;99.90;;;;;;5036433;28;20190;-80
2022/08/01 12:20:21;;;;;;;9.10;6.22;;;20.00;99.90;;;;;;5036165;28;20178;-80
2022/08/01 12:22:47;;;;;;;10.18;6.10;;;19.90;99.90;;;;;;5036387;28;20189;-80
2022/08/01 12:25:14;;;;;;;10.45;6.22;;;19.90;99.90;;;;;;5035243;28;20198;-81
2022/08/01 12:27:42;;;;;;;11.27;6.68;;;19.90;99.90;;;;;;5036554;28;20166;-80
2022/08/01 12:30:13;;;;;;;12.15;7.25;;;19.90;99.90;;;;;;5035401;28;20224;-80
2022/08/01 12:32:40;;;;;;;13.85;7.15;;;19.80;99.90;;;;;;5035702;28;20166;-80
2022/08/01 12:35:09;;;;;;;10.80;5.57;;;20.20;99.90;;;;;;5033823;28;20666;-80
2022/08/01 12:37:41;;;;;;;12.05;5.30;;;20.20;99.90;;;;;;5034178;28;20209;-80
2022/08/01 12:40:20;;;;;;;9.95;5.90;;;20.10;99.90;;;;;;5035682;28;20166;-80
2022/08/01 12:42:48;;;;;;;10.68;6.25;;;20.00;99.90;;;;;;5034159;28;20642;-80
2022/08/01 12:45:17;;;;;;;8.63;5.85;;;20.30;99.90;;;;;;5034140;28;20247;-80
2022/08/01 12:47:44;;;;;;;11.82;6.90;;;20.50;99.90;;;;;;5034579;28;20273;-81
2022/08/01 12:50:19;;;;;;;9.18;6.13;;;20.30;99.90;;;;;;5034738;28;20198;-80